Time;durP1;ratioP1;P1;durP2;ratioP2;P2;SDS_P1;SDS_P2;PMS_P1;PMS_P2;Temp;Humidity;BMP_temperature;BMP_pressure;BME280_temperature;BME280_humidity;BME280_pressure;Samples;Min_cycle;Max_cycle;Signal;HPM_P1;HPM_P2
2022/02/24 00:01:20;;;;;;;;;;;9.00;92.30;;;;;;6191809;23;19938;-89
2022/02/24 00:03:56;;;;;;;;;;;9.00;92.30;;;;;;6192790;23;19926;-88
2022/02/24 00:06:34;;;;;;;;;;;;;;;;;;;;;
2022/02/24 00:09:02;;;;;;;;;;;9.00;92.30;;;;;;6195156;23;19948;-88
2022/02/24 00:11:34;;;;;;;;;;;9.00;92.30;;;;;;6192666;23;19987;-89
2022/02/24 00:17:03;;;;;;;;;;;9.00;92.10;;;;;;6219342;23;20374;-88
2022/02/24 00:19:39;;;;;;;;;;;;;;;;;;;;;
2022/02/24 00:22:21;;;;;;;;;;;9.00;92.00;;;;;;6222721;23;19927;-89
2022/02/24 00:24:54;;;;;;;;;;;9.00;92.00;;;;;;6198589;23;19915;-88
2022/02/24 00:27:28;;;;;;;;;;;9.00;91.90;;;;;;6200310;23;19904;-88
2022/02/24 00:30:04;;;;;;;;;;;;;;;;;;;;;
2022/02/24 00:32:30;;;;;;;;;;;9.00;91.90;;;;;;6218985;23;19938;-88
2022/02/24 00:34:56;;;;;;;;;;;9.00;91.90;;;;;;6199045;23;19904;-88
2022/02/24 00:37:40;;;;;;;;;;;9.00;91.80;;;;;;6198991;23;19987;-89
2022/02/24 00:40:12;;;;;;;;;;;9.00;91.90;;;;;;6196813;23;19908;-88
2022/02/24 00:42:45;;;;;;;;;;;9.00;91.90;;;;;;6196643;23;19904;-87
2022/02/24 00:48:06;;;;;;;;;;;9.00;91.80;;;;;;6115537;23;19893;-88
2022/02/24 00:51:05;;;;;;;;;;;;;;;;;;;;;
2022/02/24 00:53:41;;;;;;;;;;;9.00;91.80;;;;;;6244482;23;19899;-87
2022/02/24 00:56:10;;;;;;;;;;;9.00;91.90;;;;;;6216567;23;19908;-88
2022/02/24 00:58:47;;;;;;;;;;;9.00;91.90;;;;;;6198221;23;19908;-88
2022/02/24 01:01:13;;;;;;;;;;;9.00;91.90;;;;;;6192117;23;19908;-87
2022/02/24 01:03:48;;;;;;;;;;;9.00;91.90;;;;;;6191383;23;19934;-88
2022/02/24 01:06:50;;;;;;;;;;;9.00;92.00;;;;;;6191933;23;20038;-89
2022/02/24 01:09:31;;;;;;;;;;;8.90;92.00;;;;;;6191561;23;19903;-89
2022/02/24 01:12:03;;;;;;;;;;;9.00;92.10;;;;;;6168542;23;19907;-86
2022/02/24 01:14:52;;;;;;;;;;;9.00;92.10;;;;;;6191276;23;19904;-88
2022/02/24 01:17:53;;;;;;;;;;;9.00;92.20;;;;;;6191871;23;20228;-88
2022/02/24 01:20:14;;;;;;;;;;;8.90;92.20;;;;;;6210694;23;19908;-88
2022/02/24 01:22:48;;;;;;;;;;;8.90;92.20;;;;;;6167220;23;19991;-88
2022/02/24 01:25:14;;;;;;;;;;;9.00;92.30;;;;;;6168399;23;19915;-88
2022/02/24 01:27:57;;;;;;;;;;;8.90;92.30;;;;;;6191788;23;19904;-88
2022/02/24 01:30:36;;;;;;;;;;;;;;;;;;;;;
2022/02/24 01:33:06;;;;;;;;;;;9.00;92.50;;;;;;6187935;23;19967;-88
2022/02/24 01:36:05;;;;;;;;;;;;;;;;;;;;;
2022/02/24 01:38:40;;;;;;;;;;;9.00;92.50;;;;;;6188111;23;19987;-88
2022/02/24 01:41:17;;;;;;;;;;;9.00;92.40;;;;;;6186750;23;19932;-89
2022/02/24 01:44:08;;;;;;;;;;;8.90;92.50;;;;;;6186829;23;19904;-87
2022/02/24 01:46:36;;;;;;;;;;;8.90;92.60;;;;;;6187368;23;19935;-88
2022/02/24 01:49:03;;;;;;;;;;;8.90;92.60;;;;;;6186743;23;19904;-87
2022/02/24 01:51:37;;;;;;;;;;;8.90;92.60;;;;;;6186125;23;19905;-88
2022/02/24 01:54:12;;;;;;;;;;;8.90;92.60;;;;;;6186889;23;19920;-87
2022/02/24 01:56:37;;;;;;;;;;;8.90;92.50;;;;;;6186342;23;20378;-87
2022/02/24 01:59:03;;;;;;;;;;;8.90;92.50;;;;;;6185723;23;19943;-85
2022/02/24 02:01:29;;;;;;;;;;;8.90;92.50;;;;;;6185665;23;19960;-85
2022/02/24 02:03:58;;;;;;;;;;;8.90;92.50;;;;;;6186279;23;19904;-86
2022/02/24 02:06:39;;;;;;;;;;;;;;;;;;;;;
2022/02/24 02:09:08;;;;;;;;;;;8.90;92.50;;;;;;6189689;23;19987;-89
2022/02/24 02:11:37;;;;;;;;;;;8.80;92.50;;;;;;6188890;23;19904;-88
2022/02/24 02:14:09;;;;;;;;;;;8.90;92.50;;;;;;6189057;23;19950;-88
2022/02/24 02:16:34;;;;;;;;;;;8.80;92.50;;;;;;6190432;23;19983;-88
2022/02/24 02:19:05;;;;;;;;;;;8.80;92.50;;;;;;6192928;23;19909;-88
2022/02/24 02:21:39;;;;;;;;;;;8.80;92.50;;;;;;6180355;23;19916;-88
2022/02/24 02:24:08;;;;;;;;;;;8.80;92.50;;;;;;6214481;23;19892;-87
2022/02/24 02:26:36;;;;;;;;;;;8.80;92.50;;;;;;6214258;23;19912;-88
2022/02/24 02:32:06;;;;;;;;;;;8.80;92.50;;;;;;6215210;23;19909;-88
2022/02/24 02:34:38;;;;;;;;;;;8.90;92.60;;;;;;6181309;23;19951;-87
2022/02/24 02:37:09;;;;;;;;;;;8.80;92.50;;;;;;6163150;23;19911;-88
2022/02/24 02:39:37;;;;;;;;;;;8.90;92.50;;;;;;6162967;23;19908;-87
2022/02/24 02:42:03;;;;;;;;;;;8.90;92.60;;;;;;6138197;23;19919;-88
2022/02/24 02:44:30;;;;;;;;;;;8.90;92.60;;;;;;6189378;23;19908;-89
2022/02/24 02:46:56;;;;;;;;;;;8.90;92.60;;;;;;6162908;23;19904;-89
2022/02/24 02:49:24;;;;;;;;;;;8.90;92.60;;;;;;6162965;23;19925;-90
2022/02/24 02:51:52;;;;;;;;;;;8.80;92.50;;;;;;6162642;23;19927;-87
2022/02/24 02:54:20;;;;;;;;;;;8.80;92.50;;;;;;6187097;23;19911;-89
2022/02/24 02:56:48;;;;;;;;;;;8.80;92.50;;;;;;6188344;23;20287;-87
2022/02/24 02:59:17;;;;;;;;;;;8.80;92.50;;;;;;6189063;23;19915;-89
2022/02/24 03:01:58;;;;;;;;;;;8.80;92.40;;;;;;6187708;23;19938;-89
2022/02/24 03:04:29;;;;;;;;;;;8.80;92.40;;;;;;6188858;23;19928;-88
2022/02/24 03:06:55;;;;;;;;;;;8.80;92.30;;;;;;6189562;23;19991;-89
2022/02/24 03:09:20;;;;;;;;;;;8.80;92.20;;;;;;6187325;23;19940;-88
2022/02/24 03:11:48;;;;;;;;;;;8.80;92.10;;;;;;6187850;23;19912;-88
2022/02/24 03:14:19;;;;;;;;;;;8.80;92.20;;;;;;6188146;23;19904;-89
2022/02/24 03:16:54;;;;;;;;;;;8.80;92.20;;;;;;6187734;23;19905;-88
2022/02/24 03:19:20;;;;;;;;;;;8.80;92.20;;;;;;6188843;23;19915;-88
2022/02/24 03:21:58;;;;;;;;;;;8.80;92.10;;;;;;6187958;23;19928;-88
2022/02/24 03:24:24;;;;;;;;;;;8.80;92.10;;;;;;6162773;23;19911;-88
2022/02/24 03:27:09;;;;;;;;;;;8.80;92.00;;;;;;6187276;23;19906;-88
2022/02/24 03:29:35;;;;;;;;;;;8.80;92.00;;;;;;6187070;23;20231;-89
2022/02/24 03:32:03;;;;;;;;;;;8.80;92.20;;;;;;6186079;23;19904;-86
2022/02/24 03:34:52;;;;;;;;;;;8.80;91.90;;;;;;6189098;23;19904;-87
2022/02/24 03:37:25;;;;;;;;;;;8.80;92.00;;;;;;6188898;23;19904;-88
2022/02/24 03:39:53;;;;;;;;;;;8.80;91.90;;;;;;6188162;23;19964;-88
2022/02/24 03:42:28;;;;;;;;;;;8.80;91.80;;;;;;6187060;23;19931;-89
2022/02/24 03:47:42;;;;;;;;;;;8.80;91.50;;;;;;6189681;23;19904;-88
2022/02/24 03:50:11;;;;;;;;;;;8.80;91.60;;;;;;6188171;23;20042;-89
2022/02/24 03:52:44;;;;;;;;;;;8.80;91.50;;;;;;6187987;23;19980;-88
2022/02/24 03:55:17;;;;;;;;;;;8.80;91.60;;;;;;6189604;23;19947;-89
2022/02/24 03:57:52;;;;;;;;;;;8.80;91.60;;;;;;6207558;23;19912;-88
2022/02/24 04:00:20;;;;;;;;;;;8.80;91.60;;;;;;6215263;23;19899;-88
2022/02/24 04:02:51;;;;;;;;;;;8.80;91.70;;;;;;6214519;23;19908;-88
2022/02/24 04:05:27;;;;;;;;;;;8.80;91.70;;;;;;6213326;23;19899;-88
2022/02/24 04:07:55;;;;;;;;;;;8.80;91.60;;;;;;6192047;23;20223;-87
2022/02/24 04:10:21;;;;;;;;;;;8.80;91.70;;;;;;6187901;23;19956;-90
2022/02/24 04:12:49;;;;;;;;;;;8.80;91.70;;;;;;6188598;23;19930;-87
2022/02/24 04:15:15;;;;;;;;;;;8.80;91.80;;;;;;6187345;23;19979;-87
2022/02/24 04:17:56;;;;;;;;;;;8.80;91.80;;;;;;6186928;23;19909;-87
2022/02/24 04:20:24;;;;;;;;;;;8.70;91.80;;;;;;6187395;23;19920;-89
2022/02/24 04:22:58;;;;;;;;;;;8.80;91.80;;;;;;6186803;23;20234;-89
2022/02/24 04:25:27;;;;;;;;;;;8.80;91.80;;;;;;6187233;23;20342;-88
2022/02/24 04:27:55;;;;;;;;;;;8.80;91.70;;;;;;6186563;23;20311;-87
2022/02/24 04:30:33;;;;;;;;;;;;;;;;;;;;;
2022/02/24 04:32:59;;;;;;;;;;;8.70;91.80;;;;;;6188323;23;19991;-88
2022/02/24 04:35:33;;;;;;;;;;;8.80;91.90;;;;;;6186937;23;19904;-88
2022/02/24 04:38:01;;;;;;;;;;;8.70;91.90;;;;;;6188416;23;19916;-89
2022/02/24 04:40:34;;;;;;;;;;;8.80;92.00;;;;;;6162235;23;19920;-88
2022/02/24 04:43:10;;;;;;;;;;;8.80;92.00;;;;;;6187062;23;19911;-88
2022/02/24 04:45:43;;;;;;;;;;;8.80;92.10;;;;;;6187256;23;19911;-88
2022/02/24 04:48:14;;;;;;;;;;;8.80;92.20;;;;;;6187288;23;20323;-88
2022/02/24 04:50:42;;;;;;;;;;;8.80;92.30;;;;;;6186787;23;19905;-88
2022/02/24 04:53:08;;;;;;;;;;;8.80;92.40;;;;;;6186653;23;19908;-88
2022/02/24 04:55:43;;;;;;;;;;;8.70;92.40;;;;;;6186892;23;19904;-87
2022/02/24 04:58:20;;;;;;;;;;;8.70;92.50;;;;;;6186747;23;19967;-86
2022/02/24 05:00:46;;;;;;;;;;;8.80;92.60;;;;;;6186037;23;19947;-85
2022/02/24 05:03:11;;;;;;;;;;;8.70;92.60;;;;;;6186023;23;19951;-85
2022/02/24 05:05:47;;;;;;;;;;;;;;;;;;;;;
2022/02/24 05:08:32;;;;;;;;;;;8.70;92.60;;;;;;6187814;23;19991;-87
2022/02/24 05:11:03;;;;;;;;;;;8.70;92.60;;;;;;6187442;23;19904;-88
2022/02/24 05:13:31;;;;;;;;;;;8.70;92.60;;;;;;6161454;23;19943;-92
2022/02/24 05:16:07;;;;;;;;;;;8.80;92.70;;;;;;6185542;23;19958;-88
2022/02/24 05:22:01;;;;;;;;;;;8.80;92.70;;;;;;6163775;23;19959;-89
2022/02/24 05:24:32;;;;;;;;;;;8.80;92.70;;;;;;6162396;23;19908;-89
2022/02/24 05:27:05;;;;;;;;;;;8.80;92.70;;;;;;6162892;23;20201;-88
2022/02/24 05:29:40;;;;;;;;;;;8.70;92.80;;;;;;6164679;23;19921;-89
2022/02/24 05:32:06;;;;;;;;;;;8.80;92.80;;;;;;6187125;23;19896;-86
2022/02/24 05:34:34;;;;;;;;;;;8.70;92.80;;;;;;6213857;23;19900;-89
2022/02/24 05:37:00;;;;;;;;;;;8.80;92.80;;;;;;6188014;23;19908;-88
2022/02/24 05:39:26;;;;;;;;;;;8.80;92.90;;;;;;6186957;23;19896;-88
2022/02/24 05:42:01;;;;;;;;;;;8.80;92.90;;;;;;6165240;23;19991;-87
2022/02/24 05:44:27;;;;;;;;;;;8.80;92.90;;;;;;6187294;23;19912;-89
2022/02/24 05:46:56;;;;;;;;;;;8.80;92.90;;;;;;6188536;23;19906;-88
2022/02/24 05:49:40;;;;;;;;;;;8.80;93.00;;;;;;6160765;23;19915;-87
2022/02/24 05:52:27;;;;;;;;;;;8.80;93.00;;;;;;6161903;23;19905;-88
2022/02/24 05:55:11;;;;;;;;;;;;;;;;;;;;;
2022/02/24 05:57:40;;;;;;;;;;;8.80;93.00;;;;;;6163156;23;19987;-88
2022/02/24 06:00:16;;;;;;;;;;;8.80;93.00;;;;;;6187589;23;20271;-86
2022/02/24 06:02:42;;;;;;;;;;;8.80;93.00;;;;;;6137658;23;19908;-87
2022/02/24 06:05:13;;;;;;;;;;;8.80;93.00;;;;;;6160905;23;19904;-87
2022/02/24 06:08:01;;;;;;;;;;;8.80;93.10;;;;;;6161004;23;19908;-87
2022/02/24 06:10:29;;;;;;;;;;;8.80;93.10;;;;;;6161079;23;19960;-88
2022/02/24 06:13:15;;;;;;;;;;;8.80;93.10;;;;;;6160884;23;19904;-88
2022/02/24 06:15:40;;;;;;;;;;;8.80;93.20;;;;;;6186192;23;19908;-88
2022/02/24 06:18:11;;;;;;;;;;;8.80;93.20;;;;;;6160788;23;20282;-88
2022/02/24 06:23:43;;;;;;;;;;;;;;;;;;;;;
2022/02/24 06:26:33;;;;;;;;;;;8.80;93.20;;;;;;6187519;23;20021;-90
2022/02/24 06:29:08;;;;;;;;;;;8.70;93.50;;;;;;6161550;23;19908;-90
2022/02/24 06:32:15;;;;;;;;;;;8.70;93.20;;;;;;6161258;23;19991;-89
2022/02/24 06:38:11;;;;;;;;;;;8.70;93.20;;;;;;6171570;23;19912;-92
2022/02/24 06:41:09;;;;;;;;;;;;;;;;;;;;;
2022/02/24 06:43:44;;;;;;;;;;;8.70;93.30;;;;;;6187972;23;19979;-91
2022/02/24 06:46:46;;;;;;;;;;;;;;;;;;;;;
2022/02/24 06:49:41;;;;;;;;;;;8.70;93.60;;;;;;6150521;23;19975;-90
2022/02/24 06:52:40;;;;;;;;;;;8.70;93.40;;;;;;6164074;23;19987;-90
2022/02/24 06:56:09;;;;;;;;;;;;;;;;;;;;;
2022/02/24 07:01:46;;;;;;;;;;;8.70;93.60;;;;;;6154240;23;20290;-90
2022/02/24 07:04:20;;;;;;;;;;;8.70;93.70;;;;;;6197120;23;19889;-88
2022/02/24 07:09:49;;;;;;;;;;;;;;;;;;;;;
2022/02/24 07:34:04;;;;;;;;;;;;;;;;;;;;;
2022/02/24 07:36:33;;;;;;;;;;;8.80;94.00;;;;;;6092684;23;19992;-89
2022/02/24 07:39:15;;;;;;;;;;;8.80;94.10;;;;;;6087092;23;19917;-89
2022/02/24 07:48:13;;;;;;;;;;;8.80;94.30;;;;;;6077616;23;20340;-89
2022/02/24 07:50:44;;;;;;;;;;;8.80;94.40;;;;;;6117542;23;19904;-89
2022/02/24 07:53:17;;;;;;;;;;;8.80;94.40;;;;;;6188420;23;19904;-89
2022/02/24 07:56:08;;;;;;;;;;;8.80;94.30;;;;;;6138930;23;19912;-88
2022/02/24 07:58:47;;;;;;;;;;;8.80;94.30;;;;;;6140653;23;19999;-89
2022/02/24 08:01:23;;;;;;;;;;;8.80;94.30;;;;;;6139286;23;19912;-89
2022/02/24 08:04:22;;;;;;;;;;;;;;;;;;;;;
2022/02/24 08:06:59;;;;;;;;;;;8.80;94.30;;;;;;6188340;23;19983;-91
2022/02/24 08:09:38;;;;;;;;;;;;;;;;;;;;;
2022/02/24 08:15:21;;;;;;;;;;;8.80;94.40;;;;;;6166996;23;20378;-89
2022/02/24 08:18:16;;;;;;;;;;;;;;;;;;;;;
2022/02/24 08:20:53;;;;;;;;;;;8.80;94.50;;;;;;6189409;23;19991;-89
2022/02/24 08:23:42;;;;;;;;;;;8.80;94.60;;;;;;6139519;23;19994;-88
2022/02/24 08:26:11;;;;;;;;;;;8.80;94.70;;;;;;6161837;23;19904;-87
2022/02/24 08:28:55;;;;;;;;;;;8.80;94.60;;;;;;6163533;23;19905;-89
2022/02/24 08:31:44;;;;;;;;;;;8.90;94.60;;;;;;6184471;23;19916;-89
2022/02/24 08:34:15;;;;;;;;;;;8.90;94.60;;;;;;6163787;23;19908;-88
2022/02/24 08:36:58;;;;;;;;;;;;;;;;;;;;;
2022/02/24 08:42:18;;;;;;;;;;;8.90;94.60;;;;;;6138886;23;19892;-91
2022/02/24 08:45:14;;;;;;;;;;;8.90;94.60;;;;;;6163844;23;19902;-89
2022/02/24 08:47:48;;;;;;;;;;;9.00;94.60;;;;;;6180290;23;19916;-89
2022/02/24 08:50:28;;;;;;;;;;;9.00;94.50;;;;;;6163848;23;19912;-88
2022/02/24 08:52:57;;;;;;;;;;;9.00;94.40;;;;;;6159171;23;19905;-90
2022/02/24 08:59:22;;;;;;;;;;;9.10;94.40;;;;;;6076906;23;19918;-89
2022/02/24 09:02:16;;;;;;;;;;;9.10;94.30;;;;;;6051684;23;19914;-90
2022/02/24 09:04:45;;;;;;;;;;;9.20;94.20;;;;;;6051199;23;19980;-90
2022/02/24 09:07:38;;;;;;;;;;;9.20;94.00;;;;;;6149110;23;19904;-87
2022/02/24 09:10:06;;;;;;;;;;;9.20;93.90;;;;;;6188356;23;19955;-87
2022/02/24 09:12:34;;;;;;;;;;;9.20;93.60;;;;;;6161316;23;20315;-86
2022/02/24 09:15:01;;;;;;;;;;;9.20;93.50;;;;;;6161663;23;20378;-85
2022/02/24 09:17:32;;;;;;;;;;;9.10;93.60;;;;;;6160922;23;19904;-86
2022/02/24 09:19:58;;;;;;;;;;;9.20;93.20;;;;;;6160439;23;19944;-85
2022/02/24 09:22:26;;;;;;;;;;;9.20;93.30;;;;;;6163025;23;19966;-86
2022/02/24 09:24:58;;;;;;;;;;;9.20;93.30;;;;;;6163808;23;19943;-86
2022/02/24 09:27:31;;;;;;;;;;;9.20;93.30;;;;;;6160337;23;20239;-85
2022/02/24 09:30:04;;;;;;;;;;;9.30;93.30;;;;;;6160826;23;19932;-89
2022/02/24 09:32:34;;;;;;;;;;;9.30;93.20;;;;;;6160262;23;19923;-87
2022/02/24 09:35:10;;;;;;;;;;;;;;;;;;;;;
2022/02/24 09:37:38;;;;;;;;;;;9.40;92.90;;;;;;6187247;23;20049;-86
2022/02/24 09:40:11;;;;;;;;;;;9.50;93.00;;;;;;6136066;23;19959;-86
2022/02/24 09:42:44;;;;;;;;;;;9.50;93.00;;;;;;6160716;23;19908;-87
2022/02/24 09:45:20;;;;;;;;;;;9.50;92.90;;;;;;6160900;23;20314;-87
2022/02/24 09:47:46;;;;;;;;;;;9.50;92.70;;;;;;6140986;23;19908;-87
2022/02/24 09:50:29;;;;;;;;;;;;;;;;;;;;;
2022/02/24 09:53:07;;;;;;;;;;;9.60;92.60;;;;;;6217652;23;20281;-88
2022/02/24 09:55:35;;;;;;;;;;;9.60;92.90;;;;;;6191184;23;20303;-86
2022/02/24 09:58:03;;;;;;;;;;;9.70;92.70;;;;;;6190543;23;19915;-87
2022/02/24 10:06:52;;;;;;;;;;;9.70;92.40;;;;;;6218762;23;19908;-89
2022/02/24 10:10:02;;;;;;;;;;;;;;;;;;;;;
2022/02/24 10:13:07;;;;;;;;;;;;;;;;;;;;;
2022/02/24 10:15:42;;;;;;;;;;;9.80;92.00;;;;;;6239335;23;19907;-88
2022/02/24 10:21:28;;;;;;;;;;;;;;;;;;;;;
2022/02/24 10:24:17;;;;;;;;;;;9.90;92.00;;;;;;6203375;23;20022;-90
2022/02/24 10:27:22;;;;;;;;;;;;;;;;;;;;;
2022/02/24 10:33:36;;;;;;;;;;;;;;;;;;;;;
2022/02/24 10:36:18;;;;;;;;;;;;;;;;;;;;;
2022/02/24 10:42:27;;;;;;;;;;;10.30;91.40;;;;;;6199558;23;19908;-88
2022/02/24 10:46:17;;;;;;;;;;;;;;;;;;;;;
2022/02/24 10:51:47;;;;;;;;;;;;;;;;;;;;;
2022/02/24 10:57:26;;;;;;;;;;;;;;;;;;;;;
2022/02/24 11:03:34;;;;;;;;;;;10.60;91.20;;;;;;6194903;23;20284;-88
2022/02/24 11:06:09;;;;;;;;;;;10.60;91.20;;;;;;6211511;23;19904;-87
2022/02/24 11:11:33;;;;;;;;;;;10.60;90.80;;;;;;6177897;23;19907;-89
2022/02/24 11:14:29;;;;;;;;;;;10.70;90.90;;;;;;6194268;23;19908;-89
2022/02/24 11:17:05;;;;;;;;;;;;;;;;;;;;;
2022/02/24 11:23:01;;;;;;;;;;;10.80;90.60;;;;;;6199888;23;19912;-88
2022/02/24 11:25:32;;;;;;;;;;;10.80;90.10;;;;;;6193008;23;19904;-88
2022/02/24 11:28:13;;;;;;;;;;;10.90;90.00;;;;;;6193428;23;19904;-86
2022/02/24 11:30:46;;;;;;;;;;;10.90;89.50;;;;;;6188378;23;19994;-86
2022/02/24 11:33:40;;;;;;;;;;;10.90;89.20;;;;;;6166960;23;20325;-89
2022/02/24 11:39:44;;;;;;;;;;;;;;;;;;;;;
2022/02/24 12:02:35;;;;;;;;;;;;;;;;;;;;;
2022/02/24 12:11:34;;;;;;;;;;;11.40;87.20;;;;;;6188500;23;19974;-90
2022/02/24 12:14:25;;;;;;;;;;;11.40;87.40;;;;;;6097509;23;19905;-90
2022/02/24 12:17:23;;;;;;;;;;;;;;;;;;;;;
2022/02/24 12:20:22;;;;;;;;;;;;;;;;;;;;;
2022/02/24 12:26:35;;;;;;;;;;;11.60;87.70;;;;;;6172523;23;19905;-89
2022/02/24 12:29:19;;;;;;;;;;;11.60;87.70;;;;;;6186167;23;19905;-89
2022/02/24 12:32:17;;;;;;;;;;;;;;;;;;;;;
2022/02/24 12:35:25;;;;;;;;;;;11.60;87.10;;;;;;6040732;23;20439;-89
2022/02/24 12:38:29;;;;;;;;;;;11.70;87.00;;;;;;5956035;24;19910;-89
2022/02/24 12:41:01;;;;;;;;;;;11.60;87.10;;;;;;6081886;23;19908;-90
2022/02/24 12:44:00;;;;;;;;;;;;;;;;;;;;;
2022/02/24 12:49:24;;;;;;;;;;;11.70;86.60;;;;;;6160424;23;19909;-89
2022/02/24 12:52:15;;;;;;;;;;;11.70;86.70;;;;;;6152977;23;19910;-90
2022/02/24 12:58:32;;;;;;;;;;;11.70;86.30;;;;;;5980955;23;20026;-89
2022/02/24 13:01:54;;;;;;;;;;;;;;;;;;;;;
2022/02/24 13:03:57;;;;;;;;;;;;;;;;;;;;;
2022/02/24 13:06:44;;;;;;;;;;;;;;;;;;;;;
2022/02/24 13:15:18;;;;;;;;;;;11.50;86.00;;;;;;5997292;23;19962;-89
2022/02/24 13:21:27;;;;;;;;;;;11.50;87.10;;;;;;6015320;23;19906;-89
2022/02/24 13:24:04;;;;;;;;;;;11.40;87.60;;;;;;6042514;23;19918;-88
2022/02/24 13:27:34;;;;;;;;;;;11.30;88.30;;;;;;6019653;23;19906;-90
2022/02/24 13:29:41;;;;;;;;;;;11.30;88.80;;;;;;5966137;24;19895;-88
2022/02/24 13:32:33;;;;;;;;;;;11.20;89.20;;;;;;6022893;23;19894;-89
2022/02/24 13:35:37;;;;;;;;;;;;;;;;;;;;;
2022/02/24 13:38:25;;;;;;;;;;;;;;;;;;;;;
2022/02/24 13:41:10;;;;;;;;;;;10.90;91.20;;;;;;6137360;23;19984;-89
2022/02/24 13:43:47;;;;;;;;;;;10.80;91.70;;;;;;6162795;23;19908;-89
2022/02/24 13:46:37;;;;;;;;;;;10.70;92.00;;;;;;6139082;23;19994;-90
2022/02/24 13:49:19;;;;;;;;;;;;;;;;;;;;;
2022/02/24 13:55:01;;;;;;;;;;;10.60;93.10;;;;;;6151720;23;19908;-89
2022/02/24 13:57:30;;;;;;;;;;;10.40;94.00;;;;;;6149313;23;19904;-89
2022/02/24 14:00:44;;;;;;;;;;;;;;;;;;;;;
2022/02/24 14:03:37;;;;;;;;;;;;;;;;;;;;;
2022/02/24 14:09:52;;;;;;;;;;;;;;;;;;;;;
2022/02/24 14:12:57;;;;;;;;;;;;;;;;;;;;;
2022/02/24 14:18:31;;;;;;;;;;;8.80;95.30;;;;;;5953339;23;19983;-88
2022/02/24 14:24:24;;;;;;;;;;;;;;;;;;;;;
2022/02/24 14:27:39;;;;;;;;;;;;;;;;;;;;;
2022/02/24 14:39:19;;;;;;;;;;;7.80;96.00;;;;;;6130550;23;19916;-91
2022/02/24 14:45:27;;;;;;;;;;;;;;;;;;;;;
2022/02/24 14:48:31;;;;;;;;;;;;;;;;;;;;;
2022/02/24 14:51:33;;;;;;;;;;;;;;;;;;;;;
2022/02/24 14:54:14;;;;;;;;;;;7.50;96.50;;;;;;5987077;24;20370;-90
2022/02/24 14:57:06;;;;;;;;;;;;;;;;;;;;;
2022/02/24 15:00:08;;;;;;;;;;;7.40;96.50;;;;;;5995199;23;20005;-88
2022/02/24 15:02:44;;;;;;;;;;;7.30;96.50;;;;;;6023073;23;19945;-90
2022/02/24 15:05:40;;;;;;;;;;;7.30;96.60;;;;;;6038558;23;19894;-88
2022/02/24 15:08:39;;;;;;;;;;;7.20;96.50;;;;;;6025256;23;19911;-88
2022/02/24 15:11:50;;;;;;;;;;;7.10;96.50;;;;;;6028282;23;19958;-89
2022/02/24 15:26:48;;;;;;;;;;;7.10;96.90;;;;;;6139796;23;19913;-90
2022/02/24 15:29:33;;;;;;;;;;;7.10;97.10;;;;;;6158543;23;19909;-89
2022/02/24 15:38:22;;;;;;;;;;;7.10;97.10;;;;;;6159253;23;20328;-90
2022/02/24 15:41:06;;;;;;;;;;;;;;;;;;;;;
2022/02/24 15:47:09;;;;;;;;;;;;;;;;;;;;;
2022/02/24 15:49:55;;;;;;;;;;;;;;;;;;;;;
2022/02/24 15:55:35;;;;;;;;;;;7.10;97.10;;;;;;6006581;23;19907;-90
2022/02/24 15:58:23;;;;;;;;;;;7.10;97.10;;;;;;5988116;23;19910;-89
2022/02/24 16:01:34;;;;;;;;;;;7.10;97.10;;;;;;5987875;23;19919;-88
2022/02/24 16:03:45;;;;;;;;;;;;;;;;;;;;;
2022/02/24 16:06:16;;;;;;;;;;;7.10;97.20;;;;;;6159260;23;19992;-90
2022/02/24 16:08:45;;;;;;;;;;;7.10;97.40;;;;;;6133158;23;19908;-89
2022/02/24 16:11:30;;;;;;;;;;;;;;;;;;;;;
2022/02/24 16:14:07;;;;;;;;;;;7.20;97.40;;;;;;6158724;23;19983;-88
2022/02/24 16:16:48;;;;;;;;;;;7.20;97.50;;;;;;6133821;23;19975;-90
2022/02/24 16:19:17;;;;;;;;;;;7.20;97.50;;;;;;6131989;23;19948;-89
2022/02/24 16:22:21;;;;;;;;;;;7.20;97.60;;;;;;6132966;23;20264;-90
2022/02/24 16:28:14;;;;;;;;;;;;;;;;;;;;;
2022/02/24 16:31:28;;;;;;;;;;;;;;;;;;;;;
2022/02/24 16:34:19;;;;;;;;;;;7.20;97.10;;;;;;6181194;23;19896;-93
2022/02/24 16:36:47;;;;;;;;;;;7.10;97.20;;;;;;6161893;23;19919;-92
2022/02/24 16:49:08;;;;;;;;;;;7.00;97.20;;;;;;6105897;23;19909;-89
2022/02/24 17:03:23;;;;;;;;;;;7.00;97.30;;;;;;6055527;23;19910;-90
2022/02/24 17:06:02;;;;;;;;;;;7.00;97.30;;;;;;6155457;23;19912;-89
2022/02/24 17:08:41;;;;;;;;;;;7.00;97.30;;;;;;6149796;23;19912;-88
2022/02/24 17:11:18;;;;;;;;;;;7.00;97.30;;;;;;6149165;23;19956;-88
2022/02/24 17:17:04;;;;;;;;;;;7.00;97.20;;;;;;6154065;23;19909;-87
2022/02/24 17:22:46;;;;;;;;;;;6.90;96.80;;;;;;6167742;23;19923;-88
2022/02/24 17:29:27;;;;;;;;;;;;;;;;;;;;;
2022/02/24 17:40:45;;;;;;;;;;;;;;;;;;;;;
2022/02/24 17:43:23;;;;;;;;;;;6.50;95.80;;;;;;6069143;23;20400;-90
2022/02/24 17:55:39;;;;;;;;;;;6.40;95.70;;;;;;5978872;23;19906;-90
2022/02/24 17:58:22;;;;;;;;;;;6.40;95.80;;;;;;5989454;23;19941;-90
2022/02/24 18:01:07;;;;;;;;;;;6.40;95.80;;;;;;6014399;23;19922;-88
2022/02/24 18:06:53;;;;;;;;;;;6.30;95.60;;;;;;6094401;23;19905;-89
2022/02/24 18:10:03;;;;;;;;;;;6.30;95.50;;;;;;6095564;23;19893;-90
2022/02/24 18:12:49;;;;;;;;;;;6.30;95.50;;;;;;6068081;23;19985;-88
2022/02/24 18:15:44;;;;;;;;;;;;;;;;;;;;;
2022/02/24 18:18:33;;;;;;;;;;;6.20;95.20;;;;;;6022747;23;20367;-89
2022/02/24 18:21:12;;;;;;;;;;;6.20;94.90;;;;;;6072063;23;20368;-87
2022/02/24 18:23:46;;;;;;;;;;;6.20;94.90;;;;;;6024539;23;19910;-87
2022/02/24 18:26:37;;;;;;;;;;;6.10;94.90;;;;;;6071964;23;20034;-87
2022/02/24 18:32:13;;;;;;;;;;;6.20;94.90;;;;;;6146149;23;19904;-88
2022/02/24 18:35:09;;;;;;;;;;;6.20;95.00;;;;;;6161825;23;19929;-87
2022/02/24 18:37:42;;;;;;;;;;;6.20;94.90;;;;;;6134914;23;19915;-86
2022/02/24 18:40:22;;;;;;;;;;;6.20;95.00;;;;;;6136006;23;19913;-87
2022/02/24 18:43:08;;;;;;;;;;;6.20;94.90;;;;;;6159768;23;19911;-89
2022/02/24 18:48:53;;;;;;;;;;;6.10;94.70;;;;;;6139251;23;19970;-88
2022/02/24 18:51:40;;;;;;;;;;;6.10;94.80;;;;;;6124892;23;19908;-89
2022/02/24 18:54:30;;;;;;;;;;;6.10;94.70;;;;;;6163756;23;20239;-88
2022/02/24 18:56:56;;;;;;;;;;;6.10;94.60;;;;;;6137395;23;19904;-87
2022/02/24 18:59:24;;;;;;;;;;;6.10;94.60;;;;;;6164470;23;19932;-89
2022/02/24 19:10:44;;;;;;;;;;;6.00;94.50;;;;;;6074333;23;19941;-87
2022/02/24 19:13:25;;;;;;;;;;;;;;;;;;;;;
2022/02/24 19:15:52;;;;;;;;;;;6.00;94.60;;;;;;6142235;23;20272;-89
2022/02/24 19:18:27;;;;;;;;;;;;;;;;;;;;;
2022/02/24 19:21:07;;;;;;;;;;;6.00;94.60;;;;;;6165477;23;19946;-88
2022/02/24 19:23:35;;;;;;;;;;;6.00;94.60;;;;;;6114694;23;19912;-88
2022/02/24 19:26:17;;;;;;;;;;;;;;;;;;;;;
2022/02/24 19:28:47;;;;;;;;;;;5.90;94.70;;;;;;6166493;23;19955;-88
2022/02/24 19:31:18;;;;;;;;;;;5.80;94.80;;;;;;6179883;23;19941;-90
2022/02/24 19:34:12;;;;;;;;;;;5.80;95.00;;;;;;6159435;23;19893;-88
2022/02/24 19:40:19;;;;;;;;;;;;;;;;;;;;;
2022/02/24 19:46:23;;;;;;;;;;;5.70;95.60;;;;;;5960191;24;19914;-86
2022/02/24 19:52:33;;;;;;;;;;;;;;;;;;;;;
2022/02/24 19:54:58;;;;;;;;;;;5.50;95.60;;;;;;5947421;24;19994;-87
2022/02/24 19:57:27;;;;;;;;;;;5.50;95.60;;;;;;5952467;23;19915;-88
2022/02/24 20:06:07;;;;;;;;;;;;;;;;;;;;;
2022/02/24 20:08:43;;;;;;;;;;;5.50;95.60;;;;;;6129963;23;19988;-88
2022/02/24 20:11:35;;;;;;;;;;;;;;;;;;;;;
2022/02/24 20:14:31;;;;;;;;;;;;;;;;;;;;;
2022/02/24 20:17:25;;;;;;;;;;;;;;;;;;;;;
2022/02/24 20:20:03;;;;;;;;;;;;;;;;;;;;;
2022/02/24 20:23:00;;;;;;;;;;;;;;;;;;;;;
2022/02/24 20:25:45;;;;;;;;;;;;;;;;;;;;;
2022/02/24 20:28:42;;;;;;;;;;;;;;;;;;;;;
2022/02/24 20:31:17;;;;;;;;;;;5.40;95.90;;;;;;6133639;23;19955;-86
2022/02/24 20:34:16;;;;;;;;;;;;;;;;;;;;;
2022/02/24 20:37:22;;;;;;;;;;;;;;;;;;;;;
2022/02/24 20:40:10;;;;;;;;;;;5.30;95.70;;;;;;6127956;23;19995;-87
2022/02/24 20:42:56;;;;;;;;;;;5.30;95.70;;;;;;6131159;23;19937;-88
2022/02/24 20:45:38;;;;;;;;;;;;;;;;;;;;;
2022/02/24 20:54:21;;;;;;;;;;;5.20;95.70;;;;;;6074858;23;19905;-86
2022/02/24 20:56:48;;;;;;;;;;;5.10;95.70;;;;;;6125695;23;19958;-89
2022/02/24 20:59:16;;;;;;;;;;;5.10;95.70;;;;;;6150800;23;19945;-90
2022/02/24 21:01:42;;;;;;;;;;;5.10;95.80;;;;;;6153603;23;19912;-89
2022/02/24 21:04:23;;;;;;;;;;;5.10;95.80;;;;;;6180680;23;19909;-89
2022/02/24 21:07:04;;;;;;;;;;;;;;;;;;;;;
2022/02/24 21:09:35;;;;;;;;;;;5.10;95.80;;;;;;6135624;23;19991;-87
2022/02/24 21:12:21;;;;;;;;;;;5.00;95.80;;;;;;6133544;23;19969;-89
2022/02/24 21:15:17;;;;;;;;;;;5.00;95.80;;;;;;6162072;23;19905;-88
2022/02/24 21:20:46;;;;;;;;;;;4.90;96.00;;;;;;6142175;23;20320;-88
2022/02/24 21:23:21;;;;;;;;;;;4.90;96.10;;;;;;6157644;23;21318;-87
2022/02/24 21:25:53;;;;;;;;;;;4.90;96.10;;;;;;6134177;23;19909;-88
2022/02/24 21:28:29;;;;;;;;;;;;;;;;;;;;;
2022/02/24 21:31:43;;;;;;;;;;;4.80;96.20;;;;;;6158772;23;19976;-87
2022/02/24 21:34:18;;;;;;;;;;;4.80;96.30;;;;;;6150224;23;19952;-88
2022/02/24 21:36:58;;;;;;;;;;;4.80;96.30;;;;;;6134400;23;19960;-87
2022/02/24 21:40:14;;;;;;;;;;;4.70;96.40;;;;;;6157286;23;19936;-89
2022/02/24 21:42:52;;;;;;;;;;;4.70;96.50;;;;;;6128346;23;20341;-88
2022/02/24 21:45:38;;;;;;;;;;;4.70;96.60;;;;;;6157759;23;19904;-92
2022/02/24 21:48:12;;;;;;;;;;;4.70;96.60;;;;;;6157185;23;19912;-88
2022/02/24 21:50:56;;;;;;;;;;;4.70;96.60;;;;;;6156111;23;20223;-87
2022/02/24 21:53:25;;;;;;;;;;;4.70;96.60;;;;;;6156732;23;20307;-88
2022/02/24 21:56:14;;;;;;;;;;;4.70;96.60;;;;;;6156586;23;19904;-89